Time;durP1;ratioP1;P1;durP2;ratioP2;P2;SDS_P1;SDS_P2;PMS_P1;PMS_P2;Temp;Humidity;BMP_temperature;BMP_pressure;BME280_temperature;BME280_humidity;BME280_pressure;Samples;Min_cycle;Max_cycle;Signal;HPM_P1;HPM_P2
2022/03/28 00:02:23;;;;;;;4.50;2.80;;;;;;;-1.08;71.60;101681.11;1719916;83;21001;-61
2022/03/28 00:04:50;;;;;;;10.37;4.67;;;;;;;-1.12;71.54;101682.70;1665870;84;21037;-60
2022/03/28 00:07:19;;;;;;;9.50;4.60;;;;;;;-1.29;71.94;101682.74;1676672;84;21022;-61
2022/03/28 00:09:47;;;;;;;6.40;3.50;;;;;;;-1.39;72.37;101680.40;1702548;83;21074;-61
2022/03/28 00:12:16;;;;;;;12.70;5.37;;;;;;;-1.43;72.43;101673.16;1698440;84;21029;-61
2022/03/28 00:14:44;;;;;;;17.40;8.23;;;;;;;-1.43;72.50;101675.68;1718586;83;21051;-61
2022/03/28 00:17:11;;;;;;;18.93;7.70;;;;;;;-1.42;72.51;101679.93;1720633;83;21481;-61
2022/03/28 00:19:42;;;;;;;12.00;4.80;;;;;;;-1.46;72.71;101684.46;1669938;84;21044;-61
2022/03/28 00:22:09;;;;;;;6.67;3.27;;;;;;;-1.52;72.87;101683.44;1689096;83;21093;-61
2022/03/28 00:24:37;;;;;;;8.27;3.17;;;;;;;-1.55;73.04;101689.69;1713960;83;20974;-61
2022/03/28 00:27:04;;;;;;;9.20;3.60;;;;;;;-1.64;73.53;101686.12;1673335;84;21624;-61
2022/03/28 00:29:32;;;;;;;8.90;4.17;;;;;;;-1.81;74.64;101685.67;1685672;84;20970;-61
2022/03/28 00:31:59;;;;;;;10.13;4.13;;;;;;;-1.95;75.80;101691.19;1675908;85;21027;-61
2022/03/28 00:34:27;;;;;;;12.37;4.07;;;;;;;-2.11;76.60;101689.92;1679651;84;21063;-61
2022/03/28 00:36:54;;;;;;;13.67;4.47;;;;;;;-2.24;77.97;101691.27;1692065;84;21022;-61
2022/03/28 00:39:22;;;;;;;11.00;3.80;;;;;;;-2.31;78.46;101693.16;1674300;85;21114;-61
2022/03/28 00:41:52;;;;;;;10.97;4.27;;;;;;;-2.37;79.17;101691.34;1720235;83;20987;-61
2022/03/28 00:44:19;;;;;;;10.00;4.10;;;;;;;-2.43;80.01;101697.06;1721485;83;21037;-61
2022/03/28 00:46:47;;;;;;;11.57;4.20;;;;;;;-2.48;81.19;101702.78;1682579;84;21075;-61
2022/03/28 00:49:15;;;;;;;10.83;3.90;;;;;;;-2.51;81.97;101701.03;1686398;84;21053;-61
2022/03/28 00:51:43;;;;;;;11.53;4.17;;;;;;;-2.58;83.07;101695.34;1651776;86;21071;-61
2022/03/28 00:54:11;;;;;;;10.17;4.07;;;;;;;-2.61;83.62;101699.06;1660972;86;21508;-61
2022/03/28 00:56:41;;;;;;;8.53;3.60;;;;;;;-2.61;84.53;101704.10;1662258;85;21074;-60
2022/03/28 00:59:11;;;;;;;8.43;3.43;;;;;;;-2.65;85.26;101704.41;1659027;86;21071;-60
2022/03/28 01:01:39;;;;;;;6.87;3.30;;;;;;;-2.66;86.06;101708.14;1662434;86;21047;-61
2022/03/28 01:04:08;;;;;;;7.33;3.60;;;;;;;-2.70;86.86;101704.66;1663087;86;21063;-60
2022/03/28 01:06:37;;;;;;;5.93;2.63;;;;;;;-2.69;87.48;101704.28;1661213;86;21032;-61
2022/03/28 01:09:06;;;;;;;7.67;2.77;;;;;;;-2.66;87.76;101707.72;1666564;85;21031;-61
2022/03/28 01:11:35;;;;;;;10.43;3.40;;;;;;;-2.67;88.39;101706.03;1666845;86;21011;-61
2022/03/28 01:14:03;;;;;;;11.17;3.40;;;;;;;-2.66;88.91;101709.40;1668674;86;21562;-61
2022/03/28 01:19:19;;;;;;;11.27;3.40;;;;;;;-2.68;89.30;101713.54;1668483;86;21062;-61
2022/03/28 01:21:46;;;;;;;9.57;2.97;;;;;;;-2.71;90.42;101716.83;1668045;86;21042;-61
2022/03/28 01:24:14;;;;;;;5.73;3.20;;;;;;;-2.74;91.01;101715.47;1666790;86;20999;-60
2022/03/28 01:26:43;;;;;;;9.13;3.60;;;;;;;-2.67;91.47;101716.11;1668153;86;21047;-61
2022/03/28 01:29:10;;;;;;;6.00;3.07;;;;;;;-2.69;91.79;101710.58;1667436;86;21000;-60
2022/03/28 01:31:40;;;;;;;7.70;3.00;;;;;;;-2.72;92.28;101719.30;1669317;86;21520;-61
2022/03/28 01:34:17;;;;;;;5.73;2.77;;;;;;;-2.75;92.79;101715.44;1668677;86;21499;-61
2022/03/28 01:36:47;;;;;;;8.67;3.03;;;;;;;-2.79;93.37;101718.68;1670876;86;20988;-61
2022/03/28 01:39:14;;;;;;;4.57;2.53;;;;;;;-2.83;94.40;101718.58;1666456;86;21023;-61
2022/03/28 01:41:41;;;;;;;5.23;2.80;;;;;;;-2.84;95.12;101724.44;1667380;85;21043;-61
2022/03/28 01:44:09;;;;;;;5.97;3.03;;;;;;;-2.86;95.73;101716.36;1671497;86;21054;-61
2022/03/28 01:46:41;;;;;;;7.77;3.43;;;;;;;-2.88;96.52;101715.08;1669078;86;21093;-62
2022/03/28 01:49:09;;;;;;;14.20;3.30;;;;;;;-2.91;96.81;101730.08;1671807;86;21072;-61
2022/03/28 01:51:36;;;;;;;6.03;2.83;;;;;;;-3.09;97.53;101726.59;1669855;86;21559;-61
2022/03/28 01:54:03;;;;;;;6.70;2.53;;;;;;;-3.07;97.92;101727.48;1686045;84;21015;-61
2022/03/28 01:56:30;;;;;;;8.17;3.03;;;;;;;-3.08;97.97;101733.34;1687973;84;21033;-61
2022/03/28 01:58:58;;;;;;;5.33;2.80;;;;;;;-3.12;97.90;101731.55;1646689;86;21055;-61
2022/03/28 02:01:26;;;;;;;6.87;2.80;;;;;;;-3.13;97.85;101739.05;1688812;84;21030;-61
2022/03/28 02:03:53;;;;;;;4.90;2.83;;;;;;;-3.18;98.40;101740.16;1682741;84;21066;-61
2022/03/28 02:06:20;;;;;;;7.77;2.87;;;;;;;-3.19;98.55;101736.33;1685496;84;21022;-61
2022/03/28 02:08:49;;;;;;;5.87;2.97;;;;;;;-3.24;98.81;101743.33;1685767;84;21025;-61
2022/03/28 02:11:17;;;;;;;7.67;2.60;;;;;;;-3.29;98.87;101743.98;1645885;87;21099;-61
2022/03/28 02:13:44;;;;;;;6.97;3.27;;;;;;;-3.29;99.22;101737.69;1687626;84;21022;-61
2022/03/28 02:16:12;;;;;;;7.37;2.80;;;;;;;-3.29;99.59;101738.95;1647109;87;21055;-61
2022/03/28 02:18:41;;;;;;;6.67;2.60;;;;;;;-3.32;99.65;101743.48;1686624;84;21042;-61
2022/03/28 02:21:09;;;;;;;5.13;3.10;;;;;;;-3.40;100.00;101741.13;1681473;84;21545;-60
2022/03/28 02:23:37;;;;;;;7.13;3.03;;;;;;;-3.44;100.00;101741.83;1688778;84;21590;-61
2022/03/28 02:26:04;;;;;;;6.40;3.03;;;;;;;-3.54;100.00;101745.70;1684347;84;21081;-61
2022/03/28 02:28:31;;;;;;;5.83;2.70;;;;;;;-3.60;100.00;101744.64;1687044;84;21022;-61
2022/03/28 02:30:59;;;;;;;5.03;2.43;;;;;;;-3.64;100.00;101748.71;1647847;86;21125;-60
2022/03/28 02:33:26;;;;;;;6.63;2.70;;;;;;;-3.62;100.00;101750.47;1685135;84;20994;-61
2022/03/28 02:35:54;;;;;;;7.20;2.60;;;;;;;-3.60;100.00;101755.56;1683721;83;21069;-60
2022/03/28 02:38:21;;;;;;;5.50;2.90;;;;;;;-3.58;100.00;101759.39;1684008;84;21025;-61
2022/03/28 02:40:49;;;;;;;5.83;2.87;;;;;;;-3.59;100.00;101759.77;1685303;84;20998;-61
2022/03/28 02:43:16;;;;;;;9.00;2.87;;;;;;;-3.59;100.00;101762.70;1684305;84;21038;-61
2022/03/28 02:45:43;;;;;;;6.93;2.80;;;;;;;-3.60;100.00;101758.08;1644826;87;21574;-61
2022/03/28 02:48:11;;;;;;;10.87;2.87;;;;;;;-3.64;100.00;101757.11;1686085;84;21471;-61
2022/03/28 02:50:39;;;;;;;6.43;2.70;;;;;;;-3.68;100.00;101754.44;1683675;84;21542;-61
2022/03/28 02:53:07;;;;;;;3.90;2.40;;;;;;;-3.73;100.00;101757.19;1692364;84;21010;-61
2022/03/28 02:55:35;;;;;;;7.73;2.53;;;;;;;-3.78;100.00;101757.45;1687263;84;21503;-60
2022/03/28 02:58:03;;;;;;;6.33;3.20;;;;;;;-3.83;100.00;101759.81;1686890;84;21027;-61
2022/03/28 03:00:31;;;;;;;7.13;3.40;;;;;;;-3.84;100.00;101763.96;1685693;84;21474;-61
2022/03/28 03:02:59;;;;;;;5.93;3.10;;;;;;;-3.87;100.00;101766.80;1687632;84;21499;-61
2022/03/28 03:05:27;;;;;;;6.60;3.43;;;;;;;-3.93;100.00;101771.61;1685447;84;21039;-61
2022/03/28 03:07:54;;;;;;;5.13;3.10;;;;;;;-3.95;100.00;101769.41;1685197;84;21011;-61
2022/03/28 03:10:22;;;;;;;8.20;2.67;;;;;;;-3.98;100.00;101773.94;1687681;84;20983;-62
2022/03/28 03:12:49;;;;;;;6.40;2.80;;;;;;;-3.98;100.00;101780.23;1686104;84;21003;-61
2022/03/28 03:15:17;;;;;;;7.27;2.80;;;;;;;-4.03;100.00;101784.25;1684271;84;21011;-61
2022/03/28 03:17:44;;;;;;;4.77;2.83;;;;;;;-4.07;100.00;101779.51;1685124;84;21035;-61
2022/03/28 03:20:13;;;;;;;5.73;2.80;;;;;;;-4.07;100.00;101785.80;1684051;84;21016;-63
2022/03/28 03:22:42;;;;;;;4.20;2.60;;;;;;;-4.07;100.00;101788.72;1688670;83;21527;-61
2022/03/28 03:25:10;;;;;;;5.77;3.00;;;;;;;-4.09;100.00;101789.91;1684481;84;21015;-61
2022/03/28 03:27:38;;;;;;;5.53;2.83;;;;;;;-4.05;100.00;101787.96;1686675;83;21562;-61
2022/03/28 03:30:09;;;;;;;9.57;3.30;;;;;;;-4.01;100.00;101796.48;1687201;84;21031;-61
2022/03/28 03:32:37;;;;;;;6.50;2.70;;;;;;;-3.97;100.00;101803.34;1684260;84;21523;-60
2022/03/28 03:35:07;;;;;;;8.20;3.03;;;;;;;-3.97;100.00;101804.59;1685403;84;21539;-60
2022/03/28 03:37:34;;;;;;;5.50;3.00;;;;;;;-3.96;100.00;101812.98;1686806;84;20971;-61
2022/03/28 03:40:01;;;;;;;5.03;2.93;;;;;;;-3.98;100.00;101816.70;1686062;83;21019;-60
2022/03/28 03:42:28;;;;;;;6.17;3.37;;;;;;;-3.99;100.00;101815.00;1687469;84;21070;-60
2022/03/28 03:44:55;;;;;;;5.67;3.07;;;;;;;-3.95;100.00;101822.23;1684654;84;20984;-60
2022/03/28 03:47:23;;;;;;;8.57;3.23;;;;;;;-3.94;100.00;101826.07;1685252;84;21546;-61
2022/03/28 03:49:50;;;;;;;7.57;2.87;;;;;;;-3.86;100.00;101825.95;1700001;83;21005;-61
2022/03/28 03:52:18;;;;;;;7.27;3.03;;;;;;;-3.80;100.00;101825.31;1698658;84;21071;-60
2022/03/28 03:54:45;;;;;;;6.07;2.83;;;;;;;-3.73;100.00;101823.48;1714036;83;21003;-61
2022/03/28 03:57:15;;;;;;;4.40;2.70;;;;;;;-3.67;100.00;101835.03;1721863;83;21029;-61
2022/03/28 03:59:42;;;;;;;7.83;3.17;;;;;;;-3.68;100.00;101830.78;1705715;84;20972;-60
2022/03/28 04:02:09;;;;;;;5.43;2.93;;;;;;;-3.55;100.00;101830.80;1699359;84;21046;-61
2022/03/28 04:04:36;;;;;;;4.80;2.80;;;;;;;-3.52;100.00;101832.59;1698040;84;21019;-61
2022/03/28 04:07:04;;;;;;;9.20;3.97;;;;;;;-3.44;100.00;101836.23;1697843;84;21023;-61
2022/03/28 04:09:32;;;;;;;5.30;2.60;;;;;;;-3.38;100.00;101841.89;1697120;84;21019;-61
2022/03/28 04:12:00;;;;;;;6.63;3.13;;;;;;;-3.36;100.00;101836.09;1698099;84;21047;-61
2022/03/28 04:14:27;;;;;;;6.60;2.97;;;;;;;-3.36;100.00;101836.09;1719001;83;21001;-61
2022/03/28 04:16:56;;;;;;;6.07;2.90;;;;;;;-3.32;100.00;101842.09;1719052;83;21548;-61
2022/03/28 04:19:24;;;;;;;6.37;3.20;;;;;;;-3.29;100.00;101848.07;1698334;84;21040;-62
2022/03/28 04:21:52;;;;;;;8.03;2.77;;;;;;;-3.24;100.00;101845.73;1716160;83;21047;-61
2022/03/28 04:24:20;;;;;;;11.17;3.07;;;;;;;-3.21;100.00;101839.52;1721215;83;21080;-61
2022/03/28 04:26:49;;;;;;;8.90;2.90;;;;;;;-3.17;100.00;101840.08;1701826;84;21468;-61
2022/03/28 04:29:18;;;;;;;4.27;2.83;;;;;;;-3.13;100.00;101841.05;1698315;84;21027;-62
2022/03/28 04:31:46;;;;;;;7.20;3.37;;;;;;;-3.06;100.00;101848.86;1720868;83;21001;-61
2022/03/28 04:34:14;;;;;;;6.97;3.00;;;;;;;-2.97;100.00;101843.67;1697034;84;21035;-61
2022/03/28 04:36:41;;;;;;;10.20;3.30;;;;;;;-2.96;100.00;101846.25;1698187;84;21001;-61
2022/03/28 04:39:11;;;;;;;10.07;4.20;;;;;;;-2.91;99.41;101848.91;1718748;83;21102;-61
2022/03/28 04:41:39;;;;;;;8.47;3.77;;;;;;;-2.86;99.15;101846.13;1694912;84;21040;-61
2022/03/28 04:44:07;;;;;;;7.07;3.53;;;;;;;-2.83;99.69;101851.28;1686581;83;21016;-61
2022/03/28 04:46:37;;;;;;;8.90;3.27;;;;;;;-2.70;100.00;101847.06;1719371;83;20981;-61
2022/03/28 04:49:05;;;;;;;7.23;3.10;;;;;;;-2.58;100.00;101850.38;1682148;84;21056;-61
2022/03/28 04:51:34;;;;;;;6.20;2.73;;;;;;;-2.46;99.77;101853.28;1642129;87;21089;-61
2022/03/28 04:54:01;;;;;;;10.10;3.33;;;;;;;-2.42;99.20;101842.48;1656244;86;21086;-61
2022/03/28 04:56:29;;;;;;;8.03;3.60;;;;;;;-2.36;98.50;101845.60;1656071;86;21074;-61
2022/03/28 04:58:56;;;;;;;7.63;3.57;;;;;;;-2.26;97.68;101845.48;1655831;86;21054;-61
2022/03/28 05:01:23;;;;;;;6.80;2.90;;;;;;;-2.19;97.62;101852.82;1657091;86;21510;-61
2022/03/28 05:03:51;;;;;;;8.23;3.40;;;;;;;-2.12;97.57;101855.99;1686399;84;21083;-61
2022/03/28 05:06:18;;;;;;;7.07;3.27;;;;;;;-1.98;97.10;101860.19;1686136;84;21026;-61
2022/03/28 05:08:46;;;;;;;7.80;3.10;;;;;;;-1.89;96.38;101862.55;1687900;84;21035;-61
2022/03/28 05:11:14;;;;;;;6.87;3.60;;;;;;;-1.79;96.01;101862.82;1671120;86;21109;-61
2022/03/28 05:13:42;;;;;;;8.13;2.73;;;;;;;-1.70;95.75;101865.62;1672651;86;21032;-61
2022/03/28 05:16:09;;;;;;;6.43;3.17;;;;;;;-1.61;95.13;101865.86;1672781;86;21045;-62
2022/03/28 05:18:37;;;;;;;9.23;3.20;;;;;;;-1.50;94.60;101872.46;1672958;86;21112;-61
2022/03/28 05:21:05;;;;;;;7.47;3.40;;;;;;;-1.36;93.86;101867.37;1672863;86;21072;-61
2022/03/28 05:23:34;;;;;;;4.97;2.80;;;;;;;-1.21;93.19;101860.63;1673151;86;21083;-61
2022/03/28 05:26:02;;;;;;;6.83;3.00;;;;;;;-1.09;92.11;101856.30;1672110;86;21528;-61
2022/03/28 05:28:30;;;;;;;5.03;2.83;;;;;;;-0.97;90.09;101855.73;1671143;86;21041;-61
2022/03/28 05:30:58;;;;;;;6.47;3.00;;;;;;;-0.86;89.03;101841.70;1672175;86;21013;-61
2022/03/28 05:33:26;;;;;;;6.40;3.00;;;;;;;-0.70;88.17;101839.98;1671988;86;21009;-61
2022/03/28 05:35:54;;;;;;;7.53;3.90;;;;;;;-0.55;87.79;101837.36;1668099;86;21060;-61
2022/03/28 05:38:21;;;;;;;6.33;3.23;;;;;;;-0.39;85.95;101828.03;1684741;84;21506;-61
2022/03/28 05:40:50;;;;;;;5.50;2.70;;;;;;;-0.20;84.73;101835.64;1651981;86;21062;-61
2022/03/28 05:43:17;;;;;;;6.33;2.70;;;;;;;-0.02;83.96;101832.61;1684251;84;21523;-61
2022/03/28 05:45:44;;;;;;;8.20;3.23;;;;;;;0.13;82.69;101844.33;1683968;84;21055;-61
2022/03/28 05:48:12;;;;;;;8.50;3.60;;;;;;;0.28;81.49;101845.46;1681404;84;21059;-61
2022/03/28 05:50:39;;;;;;;5.17;2.37;;;;;;;0.45;79.87;101844.55;1701135;83;21082;-60
2022/03/28 05:53:07;;;;;;;5.13;2.67;;;;;;;0.60;77.82;101843.55;1715409;83;21075;-61
2022/03/28 05:55:35;;;;;;;3.87;2.13;;;;;;;0.73;77.23;101848.02;1720142;83;21019;-60
2022/03/28 05:58:02;;;;;;;5.23;2.70;;;;;;;0.90;75.84;101844.52;1720382;83;20992;-61
2022/03/28 06:00:29;;;;;;;6.23;2.50;;;;;;;1.00;74.65;101843.84;1717577;83;21553;-61
2022/03/28 06:02:57;;;;;;;3.97;2.30;;;;;;;1.14;72.85;101840.69;1720185;83;21011;-61
2022/03/28 06:05:24;;;;;;;4.50;2.42;;;;;;;1.31;72.47;101851.09;1723181;83;21002;-61
2022/03/28 06:07:52;;;;;;;5.03;2.70;;;;;;;1.45;71.31;101858.50;1698132;84;21020;-61
2022/03/28 06:10:19;;;;;;;5.08;2.60;;;;;;;1.53;70.88;101855.66;1701719;84;21035;-61
2022/03/28 06:12:46;;;;;;;5.42;2.40;;;;;;;1.68;69.96;101858.83;1701579;84;21013;-61
2022/03/28 06:15:14;;;;;;;3.67;2.45;;;;;;;1.74;69.95;101861.88;1701015;84;21036;-61
2022/03/28 06:17:43;;;;;;;5.05;2.50;;;;;;;1.74;70.46;101863.98;1701448;84;21521;-61
2022/03/28 06:20:12;;;;;;;4.53;2.50;;;;;;;1.78;70.07;101853.08;1690841;85;21026;-61
2022/03/28 06:22:41;;;;;;;4.10;2.55;;;;;;;1.83;69.70;101858.63;1690937;84;21044;-61
2022/03/28 06:25:11;;;;;;;5.50;2.33;;;;;;;1.89;69.96;101858.72;1676500;85;21023;-61
2022/03/28 06:27:41;;;;;;;4.75;2.62;;;;;;;1.93;68.62;101854.96;1658638;86;21034;-61
2022/03/28 06:30:11;;;;;;;5.50;2.80;;;;;;;1.99;67.88;101865.62;1674332;85;21211;-61
2022/03/28 06:32:40;;;;;;;7.42;2.77;;;;;;;2.09;68.37;101858.55;1672034;86;21034;-60
2022/03/28 06:35:09;;;;;;;6.30;2.50;;;;;;;2.19;66.78;101865.45;1679003;85;21039;-60
2022/03/28 06:37:36;;;;;;;5.05;2.40;;;;;;;2.43;64.96;101863.17;1711250;83;21050;-61
2022/03/28 06:40:06;;;;;;;6.40;2.50;;;;;;;2.52;65.32;101856.52;1678768;84;21076;-61
2022/03/28 06:42:35;;;;;;;6.03;2.47;;;;;;;2.63;64.52;101853.23;1700121;84;21006;-61
2022/03/28 06:45:04;;;;;;;4.28;2.33;;;;;;;2.82;64.42;101848.77;1703060;84;21022;-61
2022/03/28 06:47:33;;;;;;;4.20;2.10;;;;;;;2.92;60.76;101845.87;1702796;84;21009;-61
2022/03/28 06:50:00;;;;;;;4.87;2.50;;;;;;;3.06;59.65;101842.18;1677330;85;21032;-60
2022/03/28 06:52:28;;;;;;;5.00;2.25;;;;;;;3.16;59.55;101852.47;1700425;84;21114;-60
2022/03/28 06:54:56;;;;;;;4.62;2.25;;;;;;;3.26;58.62;101838.53;1699800;84;21074;-61
2022/03/28 06:57:23;;;;;;;3.85;2.22;;;;;;;3.30;57.62;101832.19;1701896;84;21030;-61
2022/03/28 06:59:51;;;;;;;6.42;2.30;;;;;;;3.43;58.16;101838.24;1700297;84;21028;-61
2022/03/28 07:02:19;;;;;;;4.58;2.20;;;;;;;3.63;57.64;101840.05;1699569;84;21061;-61
2022/03/28 07:04:47;;;;;;;5.25;2.20;;;;;;;3.66;56.23;101837.10;1699521;84;21040;-60
2022/03/28 07:07:15;;;;;;;4.25;2.00;;;;;;;3.77;55.06;101845.67;1699906;84;21102;-62
2022/03/28 07:09:42;;;;;;;3.67;1.90;;;;;;;4.04;53.87;101844.53;1686206;85;21459;-61
2022/03/28 07:12:10;;;;;;;4.40;1.90;;;;;;;4.12;52.10;101836.49;1700239;84;21043;-60
2022/03/28 07:14:38;;;;;;;6.35;2.10;;;;;;;4.21;52.21;101841.17;1700799;84;21006;-62
2022/03/28 07:17:06;;;;;;;4.62;2.22;;;;;;;4.29;52.80;101835.27;1694877;83;21037;-62
2022/03/28 07:19:33;;;;;;;4.50;2.02;;;;;;;4.35;52.26;101836.56;1689934;84;20989;-60
2022/03/28 07:22:04;;;;;;;4.53;1.98;;;;;;;4.49;51.38;101840.43;1691322;84;21043;-60
2022/03/28 07:24:31;;;;;;;3.47;1.65;;;;;;;4.70;48.19;101848.55;1686817;84;21010;-60
2022/03/28 07:26:58;;;;;;;4.08;2.00;;;;;;;4.73;45.67;101830.70;1689310;84;21065;-60
2022/03/28 07:29:25;;;;;;;5.45;1.80;;;;;;;4.93;44.77;101830.30;1688958;84;21026;-60
2022/03/28 07:31:54;;;;;;;5.35;2.00;;;;;;;4.93;44.55;101821.80;1686918;84;21136;-60
2022/03/28 07:34:32;;;;;;;4.60;2.10;;;;;;;4.87;45.11;101816.69;1688445;84;21057;-61
2022/03/28 07:37:02;;;;;;;5.28;2.05;;;;;;;4.93;45.20;101801.39;1696775;83;21010;-61
2022/03/28 07:39:30;;;;;;;5.85;2.15;;;;;;;4.93;45.20;101801.39;1690060;84;21029;-61
2022/03/28 07:41:57;;;;;;;4.22;1.85;;;;;;;5.13;44.87;101798.80;1687230;84;20986;-61
2022/03/28 07:44:25;;;;;;;4.58;1.67;;;;;;;5.22;43.71;101795.81;1687988;84;21033;-61
2022/03/28 07:46:52;;;;;;;6.00;1.60;;;;;;;5.24;41.97;101805.20;1689781;84;21013;-61
2022/03/28 07:49:20;;;;;;;7.22;1.98;;;;;;;5.45;41.39;101802.59;1685749;84;21494;-61
2022/03/28 07:51:47;;;;;;;2.83;1.77;;;;;;;5.65;42.56;101801.27;1688347;84;21546;-61
2022/03/28 07:54:14;;;;;;;3.95;1.90;;;;;;;5.73;42.38;101792.30;1690457;85;21038;-61
2022/03/28 07:56:43;;;;;;;3.75;1.90;;;;;;;5.71;42.37;101787.62;1675076;85;21071;-61
2022/03/28 07:59:12;;;;;;;3.92;2.00;;;;;;;5.70;41.32;101797.01;1661467;86;21574;-61
2022/03/28 08:01:40;;;;;;;2.98;1.60;;;;;;;5.75;40.64;101795.27;1661401;86;21593;-61
2022/03/28 08:04:07;;;;;;;5.80;2.08;;;;;;;5.63;40.33;101793.59;1665485;85;21542;-61
2022/03/28 08:06:34;;;;;;;2.25;1.60;;;;;;;5.75;41.45;101777.39;1676739;85;21027;-61
2022/03/28 08:09:01;;;;;;;2.98;1.72;;;;;;;5.83;40.20;101793.53;1674448;84;21019;-61
2022/03/28 08:11:30;;;;;;;6.00;1.90;;;;;;;5.90;39.85;101775.22;1670879;86;21031;-61
2022/03/28 08:13:58;;;;;;;7.12;1.90;;;;;;;5.99;39.56;101773.91;1699259;84;21066;-62
2022/03/28 08:16:28;;;;;;;2.92;1.65;;;;;;;6.26;40.15;101755.87;1731617;83;21123;-61
2022/03/28 08:18:57;;;;;;;9.28;2.98;;;;;;;6.31;40.18;101761.39;1721382;83;20995;-61
2022/03/28 08:21:25;;;;;;;3.02;2.15;;;;;;;6.36;39.92;101744.73;1701761;84;21107;-62
2022/03/28 08:23:53;;;;;;;3.17;1.87;;;;;;;6.24;40.12;101748.65;1701515;84;21091;-61
2022/03/28 08:26:20;;;;;;;6.12;2.45;;;;;;;6.37;40.60;101742.61;1701528;84;21020;-61
2022/03/28 08:28:49;;;;;;;3.80;1.82;;;;;;;6.42;40.10;101735.30;1675674;84;21084;-61
2022/03/28 08:31:17;;;;;;;10.35;3.20;;;;;;;6.46;40.27;101729.73;1701783;84;21095;-61
2022/03/28 08:33:44;;;;;;;5.35;2.12;;;;;;;6.64;40.36;101741.98;1701367;84;21123;-61
2022/03/28 08:36:12;;;;;;;9.20;2.80;;;;;;;6.65;39.81;101730.47;1701456;84;21080;-61
2022/03/28 08:38:39;;;;;;;7.90;3.10;;;;;;;6.49;39.44;101725.02;1701724;84;21032;-62
2022/03/28 08:41:12;;;;;;;10.10;3.75;;;;;;;6.54;39.54;101733.08;1701527;84;21084;-61
2022/03/28 08:43:39;;;;;;;5.28;2.90;;;;;;;6.71;38.90;101715.47;1701868;84;21099;-61
2022/03/28 08:46:09;;;;;;;5.40;2.95;;;;;;;6.81;38.90;101702.59;1686656;84;21501;-62
2022/03/28 08:48:41;;;;;;;5.78;2.70;;;;;;;6.95;38.90;101728.03;1683627;83;21041;-62
2022/03/28 08:51:12;;;;;;;5.87;3.00;;;;;;;6.84;38.34;101719.62;1708331;83;21061;-62
2022/03/28 08:53:40;;;;;;;9.60;3.70;;;;;;;6.94;39.26;101717.40;1700538;83;21060;-62
2022/03/28 08:56:08;;;;;;;10.38;3.27;;;;;;;7.06;39.75;101710.03;1702132;83;21025;-61
2022/03/28 08:58:35;;;;;;;11.68;3.92;;;;;;;7.14;39.70;101704.84;1664995;86;21091;-61
2022/03/28 09:01:05;;;;;;;6.90;3.33;;;;;;;7.09;39.80;101702.74;1665566;86;21074;-62
2022/03/28 09:03:47;;;;;;;8.30;3.67;;;;;;;7.14;40.63;101701.84;1665511;85;21176;-62
2022/03/28 09:06:39;;;;;;;13.70;4.45;;;;;;;7.07;40.75;101705.31;1638776;86;21001;-61
2022/03/28 09:09:29;;;;;;;7.72;3.52;;;;;;;7.37;40.60;101696.45;1663304;86;21024;-61
2022/03/28 09:12:01;;;;;;;7.70;3.00;;;;;;;7.11;37.29;101701.86;1663134;86;21023;-62
2022/03/28 09:14:32;;;;;;;8.60;2.90;;;;;;;7.30;38.26;101688.84;1662498;86;21381;-61
2022/03/28 09:17:13;;;;;;;6.05;2.90;;;;;;;7.16;38.68;101695.43;1662924;86;21562;-61
2022/03/28 09:19:55;;;;;;;5.53;2.40;;;;;;;7.24;38.86;101691.06;1662826;86;21056;-61
2022/03/28 09:22:26;;;;;;;6.45;2.60;;;;;;;7.27;37.18;101682.49;1661417;86;21064;-62
2022/03/28 09:25:00;;;;;;;;;;;;;;;7.26;37.78;101675.66;1668145;86;21048;-62
2022/03/28 09:27:33;;;;;;;4.12;2.52;;;;;;;7.27;36.32;101682.49;1665464;85;20173;-62
2022/03/28 09:30:14;;;;;;;4.10;2.70;;;;;;;7.29;36.63;101675.20;1662878;86;21501;-62
2022/03/28 09:32:44;;;;;;;6.25;2.60;;;;;;;7.46;37.32;101666.05;1666100;86;21596;-62
2022/03/28 09:35:26;;;;;;;5.65;3.15;;;;;;;7.68;38.55;101654.22;1668046;85;21111;-62
2022/03/28 09:38:04;;;;;;;6.95;2.92;;;;;;;7.69;38.17;101653.37;1668102;85;21139;-61
2022/03/28 09:40:49;;;;;;;9.40;3.05;;;;;;;7.76;37.20;101651.11;1667809;85;21108;-61
2022/03/28 09:43:25;;;;;;;7.12;3.15;;;;;;;7.70;36.57;101649.92;1668283;85;21128;-61
2022/03/28 09:45:57;;;;;;;7.75;3.17;;;;;;;7.73;36.73;101640.48;1643805;86;21068;-62
2022/03/28 09:48:27;;;;;;;6.85;3.37;;;;;;;7.47;35.73;101633.59;1668319;84;21516;-61
2022/03/28 09:51:06;;;;;;;7.15;3.40;;;;;;;7.47;36.92;101627.18;1671505;82;21072;-61
2022/03/28 09:53:38;;;;;;;9.65;3.42;;;;;;;7.69;37.67;101617.05;1720781;83;21001;-62
2022/03/28 09:56:11;;;;;;;11.90;3.60;;;;;;;7.94;37.38;101621.80;1730980;83;21130;-62
2022/03/28 09:58:59;;;;;;;8.08;3.70;;;;;;;7.96;37.70;101614.49;1731431;83;21024;-62
2022/03/28 10:01:35;;;;;;;8.75;4.00;;;;;;;8.05;37.76;101599.84;1731129;83;21999;-62
2022/03/28 10:04:05;;;;;;;7.72;3.55;;;;;;;8.15;38.44;101603.94;1731123;83;21005;-62
2022/03/28 10:06:33;;;;;;;13.53;3.98;;;;;;;8.27;37.93;101610.59;1731082;83;20977;-62
2022/03/28 10:09:01;;;;;;;9.78;3.50;;;;;;;8.14;37.44;101606.95;1731320;83;21052;-62
2022/03/28 10:11:30;;;;;;;6.90;3.08;;;;;;;8.26;37.27;101607.63;1731043;83;21061;-62
2022/03/28 10:14:00;;;;;;;8.98;2.90;;;;;;;8.31;36.85;101596.84;1730914;83;21548;-63
2022/03/28 10:16:27;;;;;;;6.08;2.62;;;;;;;8.28;37.31;101590.50;1731249;83;21032;-62
2022/03/28 10:18:55;;;;;;;10.25;2.70;;;;;;;8.45;37.59;101598.76;1730965;83;21032;-62
2022/03/28 10:21:30;;;;;;;6.12;2.87;;;;;;;8.34;36.40;101585.26;1731241;83;21462;-63
2022/03/28 10:24:24;;;;;;;5.28;2.72;;;;;;;8.49;37.47;101586.28;1704687;83;21075;-62
2022/03/28 10:26:55;;;;;;;5.65;2.67;;;;;;;8.72;36.92;101578.59;1731413;83;21067;-62
2022/03/28 10:29:23;;;;;;;4.78;2.47;;;;;;;8.61;36.49;101580.92;1730948;83;21029;-62
2022/03/28 10:32:03;;;;;;;6.92;3.20;;;;;;;8.79;36.98;101575.87;1731220;83;21461;-62
2022/03/28 10:35:04;;;;;;;6.47;2.50;;;;;;;8.80;37.07;101572.45;1731190;83;21044;-62
2022/03/28 10:37:44;;;;;;;6.17;2.55;;;;;;;8.71;37.17;101565.36;1731215;83;21036;-63
2022/03/28 10:40:22;;;;;;;8.58;2.40;;;;;;;8.84;37.51;101557.84;1731357;83;21096;-62
2022/03/28 10:43:11;;;;;;;4.15;2.08;;;;;;;8.89;37.47;101560.30;1731272;83;21513;-63
2022/03/28 10:45:44;;;;;;;6.78;1.95;;;;;;;9.08;37.34;101541.05;1730746;82;21499;-61
2022/03/28 10:48:13;;;;;;;4.80;2.00;;;;;;;9.16;37.44;101537.04;1731291;83;21621;-62
2022/03/28 10:50:53;;;;;;;7.03;1.77;;;;;;;9.23;37.55;101531.74;1730842;83;21005;-61
2022/03/28 10:53:37;;;;;;;8.80;2.37;;;;;;;9.17;37.52;101529.75;1731028;82;20989;-61
2022/03/28 10:56:05;;;;;;;5.50;2.55;;;;;;;9.22;37.15;101530.48;1731084;83;21029;-62
2022/03/28 10:58:42;;;;;;;4.55;1.85;;;;;;;9.35;37.47;101533.20;1730982;83;21024;-61
2022/03/28 11:01:17;;;;;;;4.83;2.00;;;;;;;9.55;37.15;101507.05;1731263;83;21512;-61
2022/03/28 11:04:00;;;;;;;5.10;2.15;;;;;;;9.67;37.77;101503.34;1731163;83;21101;-61
2022/03/28 11:07:07;;;;;;;10.30;1.90;;;;;;;9.88;37.30;101507.54;1730938;83;21052;-62
2022/03/28 11:09:55;;;;;;;6.37;1.90;;;;;;;9.68;36.37;101507.58;1731132;83;21147;-61
2022/03/28 11:12:39;;;;;;;4.15;1.98;;;;;;;9.43;36.33;101497.89;1729198;83;21033;-62
2022/03/28 11:15:19;;;;;;;4.22;2.12;;;;;;;9.69;36.79;101489.13;1731358;83;21012;-62
2022/03/28 11:17:57;;;;;;;6.80;1.72;;;;;;;9.57;36.76;101485.13;1731223;83;21040;-61
2022/03/28 11:20:28;;;;;;;7.47;1.70;;;;;;;9.95;37.12;101482.05;1731076;83;21021;-62
2022/03/28 11:23:10;;;;;;;4.92;1.80;;;;;;;10.01;36.70;101478.03;1730964;83;21513;-62
2022/03/28 11:25:53;;;;;;;2.65;1.80;;;;;;;10.01;37.04;101461.31;1703649;83;22018;-62
2022/03/28 11:28:27;;;;;;;4.85;1.87;;;;;;;10.10;37.03;101459.80;1730877;83;21048;-61
2022/03/28 11:31:08;;;;;;;5.47;1.75;;;;;;;10.11;36.56;101461.47;1731220;83;21595;-62
2022/03/28 11:33:47;;;;;;;7.17;2.10;;;;;;;9.99;36.57;101442.50;1730959;83;21017;-62
2022/03/28 11:36:22;;;;;;;6.42;2.37;;;;;;;10.15;37.13;101439.08;1731079;83;21088;-61
2022/03/28 11:38:55;;;;;;;5.42;2.00;;;;;;;10.17;36.91;101425.28;1730067;83;22166;-62
2022/03/28 11:41:28;;;;;;;4.92;1.80;;;;;;;10.23;37.34;101416.10;1731400;83;20965;-62
2022/03/28 11:43:57;;;;;;;4.97;1.87;;;;;;;10.23;36.97;101414.81;1731380;83;21044;-61